sensor_id;sensor_type;location;lat;lon;timestamp;P1;durP1;ratioP1;P2;durP2;ratioP2
7957;SDS011;4024;52.172;5.378;2023-09-12T00:00:55;39.20;;;30.17;;
7957;SDS011;4024;52.172;5.378;2023-09-12T00:03:21;40.77;;;31.23;;
7957;SDS011;4024;52.172;5.378;2023-09-12T00:05:54;45.20;;;31.10;;
7957;SDS011;4024;52.172;5.378;2023-09-12T00:08:21;38.50;;;30.07;;
7957;SDS011;4024;52.172;5.378;2023-09-12T00:10:57;37.83;;;29.57;;
7957;SDS011;4024;52.172;5.378;2023-09-12T00:13:30;37.17;;;28.83;;
7957;SDS011;4024;52.172;5.378;2023-09-12T00:15:56;42.23;;;29.93;;
7957;SDS011;4024;52.172;5.378;2023-09-12T00:18:22;36.53;;;30.13;;
7957;SDS011;4024;52.172;5.378;2023-09-12T00:20:48;38.70;;;29.00;;
7957;SDS011;4024;52.172;5.378;2023-09-12T00:23:14;39.00;;;28.77;;
7957;SDS011;4024;52.172;5.378;2023-09-12T00:25:39;33.93;;;28.33;;
7957;SDS011;4024;52.172;5.378;2023-09-12T00:28:05;40.47;;;29.70;;
7957;SDS011;4024;52.172;5.378;2023-09-12T00:30:30;38.80;;;29.93;;
7957;SDS011;4024;52.172;5.378;2023-09-12T00:32:56;33.77;;;27.03;;
7957;SDS011;4024;52.172;5.378;2023-09-12T00:35:22;33.77;;;28.07;;
7957;SDS011;4024;52.172;5.378;2023-09-12T00:37:47;41.00;;;30.13;;
7957;SDS011;4024;52.172;5.378;2023-09-12T00:40:13;33.93;;;27.73;;
7957;SDS011;4024;52.172;5.378;2023-09-12T00:42:39;30.97;;;25.20;;
7957;SDS011;4024;52.172;5.378;2023-09-12T00:45:04;38.23;;;29.03;;
7957;SDS011;4024;52.172;5.378;2023-09-12T00:47:30;40.40;;;28.20;;
7957;SDS011;4024;52.172;5.378;2023-09-12T00:49:56;36.20;;;28.63;;
7957;SDS011;4024;52.172;5.378;2023-09-12T00:52:24;32.93;;;26.30;;
7957;SDS011;4024;52.172;5.378;2023-09-12T00:54:51;36.47;;;27.93;;
7957;SDS011;4024;52.172;5.378;2023-09-12T00:57:17;31.30;;;26.60;;
7957;SDS011;4024;52.172;5.378;2023-09-12T00:59:43;31.93;;;27.60;;
7957;SDS011;4024;52.172;5.378;2023-09-12T01:02:09;32.90;;;26.53;;
7957;SDS011;4024;52.172;5.378;2023-09-12T01:04:35;32.70;;;26.47;;
7957;SDS011;4024;52.172;5.378;2023-09-12T01:07:02;29.20;;;25.83;;
7957;SDS011;4024;52.172;5.378;2023-09-12T01:09:29;36.73;;;27.10;;
7957;SDS011;4024;52.172;5.378;2023-09-12T01:11:56;35.47;;;27.50;;
7957;SDS011;4024;52.172;5.378;2023-09-12T01:14:22;35.47;;;27.30;;
7957;SDS011;4024;52.172;5.378;2023-09-12T01:16:47;34.73;;;27.53;;
7957;SDS011;4024;52.172;5.378;2023-09-12T01:19:13;36.53;;;26.77;;
7957;SDS011;4024;52.172;5.378;2023-09-12T01:29:53;41.27;;;31.33;;
7957;SDS011;4024;52.172;5.378;2023-09-12T01:32:21;44.30;;;31.57;;
7957;SDS011;4024;52.172;5.378;2023-09-12T01:34:47;44.47;;;31.40;;
7957;SDS011;4024;52.172;5.378;2023-09-12T01:37:13;43.10;;;32.57;;
7957;SDS011;4024;52.172;5.378;2023-09-12T01:39:39;42.00;;;31.43;;
7957;SDS011;4024;52.172;5.378;2023-09-12T01:42:06;44.23;;;33.30;;
7957;SDS011;4024;52.172;5.378;2023-09-12T01:44:36;43.43;;;32.77;;
7957;SDS011;4024;52.172;5.378;2023-09-12T01:47:03;46.00;;;34.10;;
7957;SDS011;4024;52.172;5.378;2023-09-12T01:49:30;40.47;;;31.13;;
7957;SDS011;4024;52.172;5.378;2023-09-12T01:51:57;42.37;;;31.20;;
7957;SDS011;4024;52.172;5.378;2023-09-12T01:54:24;42.13;;;31.17;;
7957;SDS011;4024;52.172;5.378;2023-09-12T01:56:53;43.90;;;31.83;;
7957;SDS011;4024;52.172;5.378;2023-09-12T01:59:22;40.37;;;30.20;;
7957;SDS011;4024;52.172;5.378;2023-09-12T02:01:48;43.27;;;30.70;;
7957;SDS011;4024;52.172;5.378;2023-09-12T02:04:14;41.27;;;30.07;;
7957;SDS011;4024;52.172;5.378;2023-09-12T02:06:40;42.57;;;31.97;;
7957;SDS011;4024;52.172;5.378;2023-09-12T02:09:05;41.57;;;31.87;;
7957;SDS011;4024;52.172;5.378;2023-09-12T02:11:31;39.47;;;29.73;;
7957;SDS011;4024;52.172;5.378;2023-09-12T02:13:56;41.40;;;30.30;;
7957;SDS011;4024;52.172;5.378;2023-09-12T02:16:22;42.13;;;29.67;;
7957;SDS011;4024;52.172;5.378;2023-09-12T02:18:48;37.80;;;28.70;;
7957;SDS011;4024;52.172;5.378;2023-09-12T02:21:13;37.17;;;28.90;;
7957;SDS011;4024;52.172;5.378;2023-09-12T02:23:40;39.10;;;29.30;;
7957;SDS011;4024;52.172;5.378;2023-09-12T02:26:06;35.33;;;28.00;;
7957;SDS011;4024;52.172;5.378;2023-09-12T02:28:32;35.03;;;26.97;;
7957;SDS011;4024;52.172;5.378;2023-09-12T02:30:57;41.07;;;30.70;;
7957;SDS011;4024;52.172;5.378;2023-09-12T02:33:23;37.13;;;29.03;;
7957;SDS011;4024;52.172;5.378;2023-09-12T02:35:48;39.57;;;29.20;;
7957;SDS011;4024;52.172;5.378;2023-09-12T02:38:14;39.47;;;29.33;;
7957;SDS011;4024;52.172;5.378;2023-09-12T02:40:40;34.87;;;28.50;;
7957;SDS011;4024;52.172;5.378;2023-09-12T02:43:05;37.03;;;28.27;;
7957;SDS011;4024;52.172;5.378;2023-09-12T02:45:31;36.20;;;28.27;;
7957;SDS011;4024;52.172;5.378;2023-09-12T02:47:56;41.50;;;29.37;;
7957;SDS011;4024;52.172;5.378;2023-09-12T02:50:22;37.87;;;27.77;;
7957;SDS011;4024;52.172;5.378;2023-09-12T02:52:49;36.97;;;28.17;;
7957;SDS011;4024;52.172;5.378;2023-09-12T02:55:14;42.17;;;29.57;;
7957;SDS011;4024;52.172;5.378;2023-09-12T02:57:40;40.17;;;29.37;;
7957;SDS011;4024;52.172;5.378;2023-09-12T03:00:05;37.43;;;29.00;;
7957;SDS011;4024;52.172;5.378;2023-09-12T03:02:33;39.33;;;29.13;;
7957;SDS011;4024;52.172;5.378;2023-09-12T03:04:59;40.17;;;29.57;;
7957;SDS011;4024;52.172;5.378;2023-09-12T03:07:24;37.50;;;28.07;;
7957;SDS011;4024;52.172;5.378;2023-09-12T03:09:50;33.93;;;28.10;;
7957;SDS011;4024;52.172;5.378;2023-09-12T03:12:16;33.67;;;26.33;;
7957;SDS011;4024;52.172;5.378;2023-09-12T03:14:41;33.80;;;27.10;;
7957;SDS011;4024;52.172;5.378;2023-09-12T03:17:07;34.30;;;27.83;;
7957;SDS011;4024;52.172;5.378;2023-09-12T03:19:32;36.23;;;27.93;;
7957;SDS011;4024;52.172;5.378;2023-09-12T03:21:58;36.70;;;27.73;;
7957;SDS011;4024;52.172;5.378;2023-09-12T03:24:23;34.40;;;27.47;;
7957;SDS011;4024;52.172;5.378;2023-09-12T03:26:50;37.00;;;28.57;;
7957;SDS011;4024;52.172;5.378;2023-09-12T03:29:16;39.90;;;29.43;;
7957;SDS011;4024;52.172;5.378;2023-09-12T03:31:42;36.37;;;27.53;;
7957;SDS011;4024;52.172;5.378;2023-09-12T03:34:07;30.13;;;24.30;;
7957;SDS011;4024;52.172;5.378;2023-09-12T03:36:33;32.53;;;24.90;;
7957;SDS011;4024;52.172;5.378;2023-09-12T03:38:59;33.57;;;26.40;;
7957;SDS011;4024;52.172;5.378;2023-09-12T03:41:24;36.17;;;27.23;;
7957;SDS011;4024;52.172;5.378;2023-09-12T03:43:53;35.10;;;26.30;;
7957;SDS011;4024;52.172;5.378;2023-09-12T03:46:20;38.30;;;28.47;;
7957;SDS011;4024;52.172;5.378;2023-09-12T03:48:46;38.00;;;29.10;;
7957;SDS011;4024;52.172;5.378;2023-09-12T03:51:12;37.57;;;27.10;;
7957;SDS011;4024;52.172;5.378;2023-09-12T03:53:38;38.60;;;29.87;;
7957;SDS011;4024;52.172;5.378;2023-09-12T03:56:03;38.40;;;28.10;;
7957;SDS011;4024;52.172;5.378;2023-09-12T03:58:29;39.80;;;29.07;;
7957;SDS011;4024;52.172;5.378;2023-09-12T04:00:55;39.50;;;29.40;;
7957;SDS011;4024;52.172;5.378;2023-09-12T04:03:20;35.63;;;27.63;;
7957;SDS011;4024;52.172;5.378;2023-09-12T04:05:46;36.50;;;28.90;;
7957;SDS011;4024;52.172;5.378;2023-09-12T04:08:13;40.13;;;30.23;;
7957;SDS011;4024;52.172;5.378;2023-09-12T04:10:39;39.73;;;29.07;;
7957;SDS011;4024;52.172;5.378;2023-09-12T04:13:04;40.30;;;29.70;;
7957;SDS011;4024;52.172;5.378;2023-09-12T04:15:31;40.97;;;29.73;;
7957;SDS011;4024;52.172;5.378;2023-09-12T04:17:56;38.73;;;29.23;;
7957;SDS011;4024;52.172;5.378;2023-09-12T04:20:22;39.17;;;29.10;;
7957;SDS011;4024;52.172;5.378;2023-09-12T04:22:48;41.13;;;26.97;;
7957;SDS011;4024;52.172;5.378;2023-09-12T04:25:13;37.67;;;28.37;;
7957;SDS011;4024;52.172;5.378;2023-09-12T04:27:40;37.93;;;27.47;;
7957;SDS011;4024;52.172;5.378;2023-09-12T04:30:07;34.27;;;25.73;;
7957;SDS011;4024;52.172;5.378;2023-09-12T04:32:33;35.03;;;26.70;;
7957;SDS011;4024;52.172;5.378;2023-09-12T04:34:59;38.43;;;28.30;;
7957;SDS011;4024;52.172;5.378;2023-09-12T04:37:25;41.57;;;29.33;;
7957;SDS011;4024;52.172;5.378;2023-09-12T04:39:50;44.00;;;30.53;;
7957;SDS011;4024;52.172;5.378;2023-09-12T04:42:16;43.00;;;30.50;;
7957;SDS011;4024;52.172;5.378;2023-09-12T04:44:41;45.37;;;31.70;;
7957;SDS011;4024;52.172;5.378;2023-09-12T04:47:07;41.27;;;30.30;;
7957;SDS011;4024;52.172;5.378;2023-09-12T04:49:35;44.53;;;31.47;;
7957;SDS011;4024;52.172;5.378;2023-09-12T04:52:01;44.70;;;31.20;;
7957;SDS011;4024;52.172;5.378;2023-09-12T04:54:26;47.83;;;33.70;;
7957;SDS011;4024;52.172;5.378;2023-09-12T04:56:52;46.23;;;32.70;;
7957;SDS011;4024;52.172;5.378;2023-09-12T04:59:18;48.33;;;33.40;;
7957;SDS011;4024;52.172;5.378;2023-09-12T05:01:44;46.10;;;32.20;;
7957;SDS011;4024;52.172;5.378;2023-09-12T05:04:10;41.63;;;31.47;;
7957;SDS011;4024;52.172;5.378;2023-09-12T05:06:35;44.37;;;30.30;;
7957;SDS011;4024;52.172;5.378;2023-09-12T05:09:01;46.03;;;31.60;;
7957;SDS011;4024;52.172;5.378;2023-09-12T05:11:28;43.77;;;32.20;;
7957;SDS011;4024;52.172;5.378;2023-09-12T05:13:53;40.87;;;30.23;;
7957;SDS011;4024;52.172;5.378;2023-09-12T05:16:19;49.10;;;34.20;;
7957;SDS011;4024;52.172;5.378;2023-09-12T05:18:45;48.63;;;32.53;;
7957;SDS011;4024;52.172;5.378;2023-09-12T05:21:11;46.90;;;35.80;;
7957;SDS011;4024;52.172;5.378;2023-09-12T05:23:36;48.03;;;35.73;;
7957;SDS011;4024;52.172;5.378;2023-09-12T05:26:02;52.77;;;36.93;;
7957;SDS011;4024;52.172;5.378;2023-09-12T05:28:28;55.00;;;38.47;;
7957;SDS011;4024;52.172;5.378;2023-09-12T05:30:53;53.10;;;39.23;;
7957;SDS011;4024;52.172;5.378;2023-09-12T05:33:19;56.00;;;39.13;;
7957;SDS011;4024;52.172;5.378;2023-09-12T05:35:44;58.63;;;39.90;;
7957;SDS011;4024;52.172;5.378;2023-09-12T05:38:10;53.93;;;38.27;;
7957;SDS011;4024;52.172;5.378;2023-09-12T05:40:36;58.67;;;39.47;;
7957;SDS011;4024;52.172;5.378;2023-09-12T05:43:02;51.60;;;37.33;;
7957;SDS011;4024;52.172;5.378;2023-09-12T05:45:28;59.83;;;41.53;;
7957;SDS011;4024;52.172;5.378;2023-09-12T05:47:55;57.37;;;39.93;;
7957;SDS011;4024;52.172;5.378;2023-09-12T05:50:21;59.57;;;39.47;;
7957;SDS011;4024;52.172;5.378;2023-09-12T05:52:48;54.70;;;39.03;;
7957;SDS011;4024;52.172;5.378;2023-09-12T05:55:13;59.73;;;39.10;;
7957;SDS011;4024;52.172;5.378;2023-09-12T05:57:39;60.63;;;39.63;;
7957;SDS011;4024;52.172;5.378;2023-09-12T06:00:05;59.03;;;40.07;;
7957;SDS011;4024;52.172;5.378;2023-09-12T06:02:35;57.43;;;40.23;;
7957;SDS011;4024;52.172;5.378;2023-09-12T06:05:00;62.50;;;41.70;;
7957;SDS011;4024;52.172;5.378;2023-09-12T06:07:26;59.63;;;38.97;;
7957;SDS011;4024;52.172;5.378;2023-09-12T06:09:52;57.43;;;40.33;;
7957;SDS011;4024;52.172;5.378;2023-09-12T06:12:17;52.83;;;37.33;;
7957;SDS011;4024;52.172;5.378;2023-09-12T06:14:43;54.27;;;37.67;;
7957;SDS011;4024;52.172;5.378;2023-09-12T06:17:09;52.97;;;38.23;;
7957;SDS011;4024;52.172;5.378;2023-09-12T06:19:34;54.73;;;37.17;;
7957;SDS011;4024;52.172;5.378;2023-09-12T06:22:00;51.10;;;35.43;;
7957;SDS011;4024;52.172;5.378;2023-09-12T06:24:26;54.10;;;36.90;;
7957;SDS011;4024;52.172;5.378;2023-09-12T06:26:51;50.97;;;36.17;;
7957;SDS011;4024;52.172;5.378;2023-09-12T06:29:17;48.33;;;35.30;;
7957;SDS011;4024;52.172;5.378;2023-09-12T06:31:43;51.70;;;36.43;;
7957;SDS011;4024;52.172;5.378;2023-09-12T06:34:09;50.30;;;35.43;;
7957;SDS011;4024;52.172;5.378;2023-09-12T06:36:35;48.43;;;35.47;;
7957;SDS011;4024;52.172;5.378;2023-09-12T06:39:01;52.03;;;36.37;;
7957;SDS011;4024;52.172;5.378;2023-09-12T06:41:28;53.97;;;36.00;;
7957;SDS011;4024;52.172;5.378;2023-09-12T06:43:54;52.43;;;36.67;;
7957;SDS011;4024;52.172;5.378;2023-09-12T06:46:22;57.73;;;36.33;;
7957;SDS011;4024;52.172;5.378;2023-09-12T06:48:47;53.70;;;36.67;;
7957;SDS011;4024;52.172;5.378;2023-09-12T06:51:15;53.27;;;36.37;;
7957;SDS011;4024;52.172;5.378;2023-09-12T06:53:41;50.80;;;36.53;;
7957;SDS011;4024;52.172;5.378;2023-09-12T06:56:07;51.67;;;36.57;;
7957;SDS011;4024;52.172;5.378;2023-09-12T06:58:33;54.30;;;37.87;;
7957;SDS011;4024;52.172;5.378;2023-09-12T07:01:02;51.70;;;36.50;;
7957;SDS011;4024;52.172;5.378;2023-09-12T07:03:29;56.60;;;38.47;;
7957;SDS011;4024;52.172;5.378;2023-09-12T07:05:55;54.37;;;35.50;;
7957;SDS011;4024;52.172;5.378;2023-09-12T07:08:21;51.13;;;34.93;;
7957;SDS011;4024;52.172;5.378;2023-09-12T07:10:47;47.30;;;33.23;;
7957;SDS011;4024;52.172;5.378;2023-09-12T07:13:12;47.70;;;32.97;;
7957;SDS011;4024;52.172;5.378;2023-09-12T07:15:38;44.37;;;30.13;;
7957;SDS011;4024;52.172;5.378;2023-09-12T07:18:04;47.87;;;32.87;;
7957;SDS011;4024;52.172;5.378;2023-09-12T07:20:31;45.97;;;31.63;;
7957;SDS011;4024;52.172;5.378;2023-09-12T07:23:00;41.37;;;29.83;;
7957;SDS011;4024;52.172;5.378;2023-09-12T07:25:26;44.23;;;30.27;;
7957;SDS011;4024;52.172;5.378;2023-09-12T07:27:51;50.60;;;31.50;;
7957;SDS011;4024;52.172;5.378;2023-09-12T07:30:17;43.13;;;31.50;;
7957;SDS011;4024;52.172;5.378;2023-09-12T07:32:43;39.67;;;29.67;;
7957;SDS011;4024;52.172;5.378;2023-09-12T07:35:08;39.83;;;27.90;;
7957;SDS011;4024;52.172;5.378;2023-09-12T07:37:34;48.50;;;31.27;;
7957;SDS011;4024;52.172;5.378;2023-09-12T07:40:00;43.47;;;30.17;;
7957;SDS011;4024;52.172;5.378;2023-09-12T07:42:26;41.20;;;29.17;;
7957;SDS011;4024;52.172;5.378;2023-09-12T07:44:51;41.13;;;28.63;;
7957;SDS011;4024;52.172;5.378;2023-09-12T07:47:17;40.43;;;28.83;;
7957;SDS011;4024;52.172;5.378;2023-09-12T07:49:43;39.73;;;28.47;;
7957;SDS011;4024;52.172;5.378;2023-09-12T07:52:09;38.87;;;26.83;;
7957;SDS011;4024;52.172;5.378;2023-09-12T07:54:34;39.93;;;28.40;;
7957;SDS011;4024;52.172;5.378;2023-09-12T07:57:02;42.60;;;27.47;;
7957;SDS011;4024;52.172;5.378;2023-09-12T07:59:28;37.00;;;26.33;;
7957;SDS011;4024;52.172;5.378;2023-09-12T08:01:54;38.90;;;26.77;;
7957;SDS011;4024;52.172;5.378;2023-09-12T08:04:20;37.40;;;26.63;;
7957;SDS011;4024;52.172;5.378;2023-09-12T08:06:45;41.17;;;27.40;;
7957;SDS011;4024;52.172;5.378;2023-09-12T08:09:11;42.40;;;27.53;;
7957;SDS011;4024;52.172;5.378;2023-09-12T08:11:36;41.47;;;26.63;;
7957;SDS011;4024;52.172;5.378;2023-09-12T08:14:02;40.17;;;26.43;;
7957;SDS011;4024;52.172;5.378;2023-09-12T08:16:28;39.73;;;26.47;;
7957;SDS011;4024;52.172;5.378;2023-09-12T08:18:53;44.90;;;28.37;;
7957;SDS011;4024;52.172;5.378;2023-09-12T08:21:19;46.50;;;29.60;;
7957;SDS011;4024;52.172;5.378;2023-09-12T08:23:45;46.03;;;28.63;;
7957;SDS011;4024;52.172;5.378;2023-09-12T08:26:10;41.23;;;27.07;;
7957;SDS011;4024;52.172;5.378;2023-09-12T08:28:36;43.90;;;29.40;;
7957;SDS011;4024;52.172;5.378;2023-09-12T08:31:01;40.40;;;27.53;;
7957;SDS011;4024;52.172;5.378;2023-09-12T08:33:27;38.33;;;26.30;;
7957;SDS011;4024;52.172;5.378;2023-09-12T08:35:53;37.23;;;27.70;;
7957;SDS011;4024;52.172;5.378;2023-09-12T08:38:19;39.37;;;26.90;;
7957;SDS011;4024;52.172;5.378;2023-09-12T08:40:48;36.63;;;25.53;;
7957;SDS011;4024;52.172;5.378;2023-09-12T08:43:15;35.40;;;25.53;;
7957;SDS011;4024;52.172;5.378;2023-09-12T08:45:41;45.87;;;29.10;;
7957;SDS011;4024;52.172;5.378;2023-09-12T08:48:09;35.90;;;24.93;;
7957;SDS011;4024;52.172;5.378;2023-09-12T08:50:36;36.80;;;26.27;;
7957;SDS011;4024;52.172;5.378;2023-09-12T08:53:02;36.07;;;26.33;;
7957;SDS011;4024;52.172;5.378;2023-09-12T08:55:28;38.80;;;26.80;;
7957;SDS011;4024;52.172;5.378;2023-09-12T08:57:55;37.40;;;26.73;;
7957;SDS011;4024;52.172;5.378;2023-09-12T09:00:21;39.07;;;27.33;;
7957;SDS011;4024;52.172;5.378;2023-09-12T09:02:48;34.43;;;25.50;;
7957;SDS011;4024;52.172;5.378;2023-09-12T09:05:14;39.80;;;26.57;;
7957;SDS011;4024;52.172;5.378;2023-09-12T09:07:42;41.33;;;27.50;;
7957;SDS011;4024;52.172;5.378;2023-09-12T09:10:14;34.23;;;26.20;;
7957;SDS011;4024;52.172;5.378;2023-09-12T09:12:42;36.10;;;25.57;;
7957;SDS011;4024;52.172;5.378;2023-09-12T09:15:21;33.80;;;23.17;;
7957;SDS011;4024;52.172;5.378;2023-09-12T09:17:48;35.30;;;27.10;;
7957;SDS011;4024;52.172;5.378;2023-09-12T09:20:30;34.60;;;26.80;;
7957;SDS011;4024;52.172;5.378;2023-09-12T09:23:00;37.13;;;28.03;;
7957;SDS011;4024;52.172;5.378;2023-09-12T09:25:30;33.47;;;26.93;;
7957;SDS011;4024;52.172;5.378;2023-09-12T09:27:56;36.50;;;26.97;;
7957;SDS011;4024;52.172;5.378;2023-09-12T09:30:39;35.30;;;27.30;;
7957;SDS011;4024;52.172;5.378;2023-09-12T09:33:09;37.03;;;27.13;;
7957;SDS011;4024;52.172;5.378;2023-09-12T09:35:36;35.80;;;28.17;;
7957;SDS011;4024;52.172;5.378;2023-09-12T09:38:05;36.77;;;26.03;;
7957;SDS011;4024;52.172;5.378;2023-09-12T09:40:32;37.13;;;29.50;;
7957;SDS011;4024;52.172;5.378;2023-09-12T09:42:59;39.20;;;29.93;;
7957;SDS011;4024;52.172;5.378;2023-09-12T09:45:27;39.37;;;28.03;;
7957;SDS011;4024;52.172;5.378;2023-09-12T09:47:56;38.20;;;28.53;;
7957;SDS011;4024;52.172;5.378;2023-09-12T09:50:23;37.93;;;28.67;;
7957;SDS011;4024;52.172;5.378;2023-09-12T09:52:52;32.67;;;25.80;;
7957;SDS011;4024;52.172;5.378;2023-09-12T09:55:20;36.37;;;27.23;;
7957;SDS011;4024;52.172;5.378;2023-09-12T09:57:45;34.10;;;26.70;;
7957;SDS011;4024;52.172;5.378;2023-09-12T10:00:13;35.13;;;26.83;;
7957;SDS011;4024;52.172;5.378;2023-09-12T10:02:40;32.70;;;25.37;;
7957;SDS011;4024;52.172;5.378;2023-09-12T10:05:07;34.40;;;26.10;;
7957;SDS011;4024;52.172;5.378;2023-09-12T10:07:34;34.83;;;26.17;;
7957;SDS011;4024;52.172;5.378;2023-09-12T10:10:03;31.90;;;25.43;;
7957;SDS011;4024;52.172;5.378;2023-09-12T10:12:30;34.77;;;24.90;;
7957;SDS011;4024;52.172;5.378;2023-09-12T10:14:59;35.93;;;25.27;;
7957;SDS011;4024;52.172;5.378;2023-09-12T10:17:26;33.97;;;26.50;;
7957;SDS011;4024;52.172;5.378;2023-09-12T10:19:59;35.73;;;25.67;;
7957;SDS011;4024;52.172;5.378;2023-09-12T10:22:37;36.03;;;26.43;;
7957;SDS011;4024;52.172;5.378;2023-09-12T10:25:07;35.87;;;25.37;;
7957;SDS011;4024;52.172;5.378;2023-09-12T10:27:34;29.80;;;22.97;;
7957;SDS011;4024;52.172;5.378;2023-09-12T10:29:59;30.87;;;23.50;;
7957;SDS011;4024;52.172;5.378;2023-09-12T10:32:27;28.23;;;22.97;;
7957;SDS011;4024;52.172;5.378;2023-09-12T10:34:55;32.60;;;23.47;;
7957;SDS011;4024;52.172;5.378;2023-09-12T10:37:24;32.40;;;24.23;;
7957;SDS011;4024;52.172;5.378;2023-09-12T10:39:53;34.50;;;25.27;;
7957;SDS011;4024;52.172;5.378;2023-09-12T10:42:19;35.53;;;23.67;;
7957;SDS011;4024;52.172;5.378;2023-09-12T10:44:45;29.40;;;22.30;;
7957;SDS011;4024;52.172;5.378;2023-09-12T10:47:11;31.43;;;23.30;;
7957;SDS011;4024;52.172;5.378;2023-09-12T10:49:38;26.20;;;20.90;;
7957;SDS011;4024;52.172;5.378;2023-09-12T10:52:05;27.80;;;21.70;;
7957;SDS011;4024;52.172;5.378;2023-09-12T10:54:37;28.67;;;21.00;;
7957;SDS011;4024;52.172;5.378;2023-09-12T10:57:04;30.53;;;22.27;;
7957;SDS011;4024;52.172;5.378;2023-09-12T10:59:36;29.13;;;20.87;;
7957;SDS011;4024;52.172;5.378;2023-09-12T11:04:52;31.40;;;24.00;;
7957;SDS011;4024;52.172;5.378;2023-09-12T11:07:33;28.43;;;20.87;;
7957;SDS011;4024;52.172;5.378;2023-09-12T11:12:42;29.50;;;21.70;;
7957;SDS011;4024;52.172;5.378;2023-09-12T11:15:08;29.00;;;21.57;;
7957;SDS011;4024;52.172;5.378;2023-09-12T11:17:38;27.20;;;21.90;;
7957;SDS011;4024;52.172;5.378;2023-09-12T11:20:05;25.80;;;20.77;;
7957;SDS011;4024;52.172;5.378;2023-09-12T11:22:36;26.60;;;18.47;;
7957;SDS011;4024;52.172;5.378;2023-09-12T11:25:04;23.47;;;18.93;;
7957;SDS011;4024;52.172;5.378;2023-09-12T11:30:21;23.93;;;18.17;;
7957;SDS011;4024;52.172;5.378;2023-09-12T11:32:52;22.40;;;18.10;;
7957;SDS011;4024;52.172;5.378;2023-09-12T11:35:22;20.73;;;16.70;;
7957;SDS011;4024;52.172;5.378;2023-09-12T11:37:49;22.50;;;17.53;;
7957;SDS011;4024;52.172;5.378;2023-09-12T11:40:17;17.27;;;15.17;;
7957;SDS011;4024;52.172;5.378;2023-09-12T11:42:48;21.13;;;15.80;;
7957;SDS011;4024;52.172;5.378;2023-09-12T11:45:20;19.90;;;16.67;;
7957;SDS011;4024;52.172;5.378;2023-09-12T11:47:46;19.93;;;15.73;;
7957;SDS011;4024;52.172;5.378;2023-09-12T11:50:48;19.63;;;14.50;;
7957;SDS011;4024;52.172;5.378;2023-09-12T11:53:10;17.43;;;14.00;;
7957;SDS011;4024;52.172;5.378;2023-09-12T11:55:43;16.77;;;12.87;;
7957;SDS011;4024;52.172;5.378;2023-09-12T11:58:13;17.30;;;14.03;;
7957;SDS011;4024;52.172;5.378;2023-09-12T12:00:50;16.73;;;12.80;;
7957;SDS011;4024;52.172;5.378;2023-09-12T12:03:17;16.13;;;12.83;;
7957;SDS011;4024;52.172;5.378;2023-09-12T12:05:44;17.27;;;11.97;;
7957;SDS011;4024;52.172;5.378;2023-09-12T12:08:11;15.53;;;12.80;;
7957;SDS011;4024;52.172;5.378;2023-09-12T12:10:37;16.77;;;11.83;;
7957;SDS011;4024;52.172;5.378;2023-09-12T12:13:06;18.70;;;12.53;;
7957;SDS011;4024;52.172;5.378;2023-09-12T12:15:41;17.07;;;11.47;;
7957;SDS011;4024;52.172;5.378;2023-09-12T12:18:07;17.53;;;13.40;;
7957;SDS011;4024;52.172;5.378;2023-09-12T12:20:33;16.70;;;13.47;;
7957;SDS011;4024;52.172;5.378;2023-09-12T12:22:58;16.17;;;12.47;;
7957;SDS011;4024;52.172;5.378;2023-09-12T12:25:24;14.83;;;12.40;;
7957;SDS011;4024;52.172;5.378;2023-09-12T12:27:50;16.17;;;12.17;;
7957;SDS011;4024;52.172;5.378;2023-09-12T12:30:18;12.53;;;11.20;;
7957;SDS011;4024;52.172;5.378;2023-09-12T12:32:45;13.33;;;10.27;;
7957;SDS011;4024;52.172;5.378;2023-09-12T12:35:18;12.70;;;8.90;;
7957;SDS011;4024;52.172;5.378;2023-09-12T12:37:44;12.17;;;9.17;;
7957;SDS011;4024;52.172;5.378;2023-09-12T12:40:14;10.40;;;8.93;;
7957;SDS011;4024;52.172;5.378;2023-09-12T12:42:40;13.40;;;9.80;;
7957;SDS011;4024;52.172;5.378;2023-09-12T12:45:13;12.77;;;8.93;;
7957;SDS011;4024;52.172;5.378;2023-09-12T12:47:40;12.43;;;10.13;;
7957;SDS011;4024;52.172;5.378;2023-09-12T12:50:13;15.23;;;11.70;;
7957;SDS011;4024;52.172;5.378;2023-09-12T12:52:39;19.37;;;11.07;;
7957;SDS011;4024;52.172;5.378;2023-09-12T12:55:06;13.63;;;10.73;;
7957;SDS011;4024;52.172;5.378;2023-09-12T12:57:38;11.47;;;9.73;;
7957;SDS011;4024;52.172;5.378;2023-09-12T13:00:08;10.67;;;9.63;;
7957;SDS011;4024;52.172;5.378;2023-09-12T13:02:36;9.93;;;7.87;;
7957;SDS011;4024;52.172;5.378;2023-09-12T13:05:26;11.20;;;9.67;;
7957;SDS011;4024;52.172;5.378;2023-09-12T13:07:55;11.90;;;10.70;;
7957;SDS011;4024;52.172;5.378;2023-09-12T13:10:21;14.63;;;11.73;;
7957;SDS011;4024;52.172;5.378;2023-09-12T13:12:48;18.70;;;13.83;;
7957;SDS011;4024;52.172;5.378;2023-09-12T13:15:14;19.97;;;15.50;;
7957;SDS011;4024;52.172;5.378;2023-09-12T13:17:40;24.67;;;17.20;;
7957;SDS011;4024;52.172;5.378;2023-09-12T13:20:07;19.23;;;15.70;;
7957;SDS011;4024;52.172;5.378;2023-09-12T13:22:36;19.47;;;15.10;;
7957;SDS011;4024;52.172;5.378;2023-09-12T13:25:02;16.57;;;12.40;;
7957;SDS011;4024;52.172;5.378;2023-09-12T13:27:28;11.00;;;9.20;;
7957;SDS011;4024;52.172;5.378;2023-09-12T13:29:54;9.80;;;7.33;;
7957;SDS011;4024;52.172;5.378;2023-09-12T13:32:19;8.23;;;6.53;;
7957;SDS011;4024;52.172;5.378;2023-09-12T13:34:45;9.20;;;6.67;;
7957;SDS011;4024;52.172;5.378;2023-09-12T13:37:11;8.50;;;7.27;;
7957;SDS011;4024;52.172;5.378;2023-09-12T13:39:36;10.50;;;8.33;;
7957;SDS011;4024;52.172;5.378;2023-09-12T13:42:02;11.50;;;8.80;;
7957;SDS011;4024;52.172;5.378;2023-09-12T13:44:29;10.00;;;9.00;;
7957;SDS011;4024;52.172;5.378;2023-09-12T13:46:55;11.90;;;8.97;;
7957;SDS011;4024;52.172;5.378;2023-09-12T13:49:21;14.13;;;12.10;;
7957;SDS011;4024;52.172;5.378;2023-09-12T13:51:46;14.20;;;11.47;;
7957;SDS011;4024;52.172;5.378;2023-09-12T13:54:12;14.23;;;10.20;;
7957;SDS011;4024;52.172;5.378;2023-09-12T13:56:43;12.43;;;10.03;;
7957;SDS011;4024;52.172;5.378;2023-09-12T13:59:09;11.40;;;8.70;;
7957;SDS011;4024;52.172;5.378;2023-09-12T14:01:36;9.63;;;8.63;;
7957;SDS011;4024;52.172;5.378;2023-09-12T14:04:02;11.93;;;9.20;;
7957;SDS011;4024;52.172;5.378;2023-09-12T14:06:29;12.17;;;9.63;;
7957;SDS011;4024;52.172;5.378;2023-09-12T14:08:55;12.27;;;10.10;;
7957;SDS011;4024;52.172;5.378;2023-09-12T14:11:21;12.97;;;10.83;;
7957;SDS011;4024;52.172;5.378;2023-09-12T14:13:46;14.17;;;10.43;;
7957;SDS011;4024;52.172;5.378;2023-09-12T14:16:12;15.40;;;9.60;;
7957;SDS011;4024;52.172;5.378;2023-09-12T14:18:38;12.70;;;9.20;;
7957;SDS011;4024;52.172;5.378;2023-09-12T14:21:03;8.87;;;7.83;;
7957;SDS011;4024;52.172;5.378;2023-09-12T14:23:29;10.47;;;7.80;;
7957;SDS011;4024;52.172;5.378;2023-09-12T14:25:55;10.37;;;9.13;;
7957;SDS011;4024;52.172;5.378;2023-09-12T14:28:20;11.60;;;9.10;;
7957;SDS011;4024;52.172;5.378;2023-09-12T14:30:46;11.23;;;8.83;;
7957;SDS011;4024;52.172;5.378;2023-09-12T14:33:13;11.27;;;9.00;;
7957;SDS011;4024;52.172;5.378;2023-09-12T14:35:40;10.87;;;8.80;;
7957;SDS011;4024;52.172;5.378;2023-09-12T14:38:06;13.80;;;9.27;;
7957;SDS011;4024;52.172;5.378;2023-09-12T14:40:32;11.17;;;8.57;;
7957;SDS011;4024;52.172;5.378;2023-09-12T14:42:59;14.50;;;10.03;;
7957;SDS011;4024;52.172;5.378;2023-09-12T14:45:27;12.93;;;11.17;;
7957;SDS011;4024;52.172;5.378;2023-09-12T14:47:53;11.33;;;9.30;;
7957;SDS011;4024;52.172;5.378;2023-09-12T14:50:20;9.33;;;7.93;;
7957;SDS011;4024;52.172;5.378;2023-09-12T14:52:49;10.60;;;8.00;;
7957;SDS011;4024;52.172;5.378;2023-09-12T14:55:15;8.33;;;7.40;;
7957;SDS011;4024;52.172;5.378;2023-09-12T14:57:41;9.20;;;7.53;;
7957;SDS011;4024;52.172;5.378;2023-09-12T15:00:08;7.57;;;6.53;;
7957;SDS011;4024;52.172;5.378;2023-09-12T15:02:33;8.40;;;6.90;;
7957;SDS011;4024;52.172;5.378;2023-09-12T15:05:00;6.80;;;5.60;;